Time;durP1;ratioP1;P1;durP2;ratioP2;P2;SDS_P1;SDS_P2;PMS_P1;PMS_P2;Temp;Humidity;BMP_temperature;BMP_pressure;BME280_temperature;BME280_humidity;BME280_pressure;Samples;Min_cycle;Max_cycle;Signal;HPM_P1;HPM_P2
2020/12/08 00:01:31;;;;;;;8.30;3.63;;;3.40;95.10;;;;;;4834942;29;20057;-75
2020/12/08 00:03:58;;;;;;;8.27;4.17;;;3.40;95.00;;;;;;4842666;29;20439;-74
2020/12/08 00:06:25;;;;;;;8.83;3.77;;;3.30;95.00;;;;;;4834070;29;20068;-74
2020/12/08 00:08:53;;;;;;;9.20;3.73;;;3.30;95.00;;;;;;4829430;29;20126;-75
2020/12/08 00:11:19;;;;;;;7.63;3.67;;;3.30;95.00;;;;;;4826442;29;20058;-75
2020/12/08 00:13:46;;;;;;;8.33;4.03;;;3.30;95.10;;;;;;4826541;29;20054;-74
2020/12/08 00:16:15;;;;;;;7.17;3.77;;;3.30;95.10;;;;;;4837209;29;20487;-74
2020/12/08 00:18:42;;;;;;;8.37;3.47;;;3.30;95.20;;;;;;4835773;29;20049;-74
2020/12/08 00:21:11;;;;;;;9.03;3.90;;;3.30;95.20;;;;;;4825899;29;20110;-75
2020/12/08 00:23:38;;;;;;;8.43;3.93;;;3.40;95.40;;;;;;4842720;29;20048;-75
2020/12/08 00:26:04;;;;;;;8.53;3.53;;;3.40;95.10;;;;;;4842042;29;20125;-75
2020/12/08 00:28:32;;;;;;;5.93;3.10;;;3.40;95.10;;;;;;4842474;29;20045;-76
2020/12/08 00:30:59;;;;;;;9.13;4.30;;;3.40;95.10;;;;;;4842469;29;20097;-75
2020/12/08 00:33:26;;;;;;;8.47;3.50;;;3.50;95.10;;;;;;4842902;29;20037;-75
2020/12/08 00:35:53;;;;;;;7.63;3.17;;;3.60;95.10;;;;;;4825978;29;20050;-75
2020/12/08 00:38:20;;;;;;;7.40;3.93;;;3.60;95.10;;;;;;4830210;29;20049;-75
2020/12/08 00:40:46;;;;;;;9.03;3.83;;;3.60;95.00;;;;;;4832685;29;20686;-75
2020/12/08 00:43:13;;;;;;;9.33;3.70;;;3.70;95.10;;;;;;4845541;29;20038;-75
2020/12/08 00:45:44;;;;;;;7.93;3.57;;;3.70;95.00;;;;;;4855180;29;20078;-75
2020/12/08 00:48:13;;;;;;;9.60;4.57;;;3.80;95.00;;;;;;4842584;29;20069;-75
2020/12/08 00:50:39;;;;;;;7.30;3.63;;;3.70;94.90;;;;;;4849307;29;20064;-75
2020/12/08 00:53:06;;;;;;;7.37;3.43;;;3.70;94.90;;;;;;4814760;29;20046;-75
2020/12/08 00:55:34;;;;;;;8.93;4.43;;;3.60;94.80;;;;;;4854942;29;20459;-74
2020/12/08 00:58:01;;;;;;;7.37;3.47;;;3.60;94.90;;;;;;4838669;29;20050;-75
2020/12/08 01:00:28;;;;;;;7.80;3.50;;;3.50;94.90;;;;;;4841176;29;20125;-75
2020/12/08 01:02:54;;;;;;;7.30;3.57;;;3.50;95.00;;;;;;4839706;29;20120;-75
2020/12/08 01:05:22;;;;;;;8.10;3.30;;;3.40;95.00;;;;;;4841201;29;20045;-75
2020/12/08 01:07:53;;;;;;;7.45;3.30;;;3.40;95.00;;;;;;4825040;29;20126;-75
2020/12/08 01:10:26;;;;;;;7.13;3.67;;;3.30;95.00;;;;;;4840882;29;20046;-75
2020/12/08 01:12:53;;;;;;;6.63;3.50;;;3.30;95.00;;;;;;4825887;29;20049;-75
2020/12/08 01:15:19;;;;;;;6.13;3.10;;;3.30;95.10;;;;;;4825789;29;20060;-75
2020/12/08 01:17:46;;;;;;;7.87;3.23;;;3.30;95.10;;;;;;4841885;29;20044;-74
2020/12/08 01:20:14;;;;;;;8.37;3.43;;;3.30;95.10;;;;;;4841833;29;20046;-75
2020/12/08 01:22:43;;;;;;;6.90;3.00;;;3.30;95.10;;;;;;4840238;29;20045;-75
2020/12/08 01:25:10;;;;;;;7.00;3.13;;;3.30;95.20;;;;;;4840500;29;20498;-75
2020/12/08 01:27:40;;;;;;;7.30;3.27;;;3.30;95.10;;;;;;4840313;29;20042;-75
2020/12/08 01:30:08;;;;;;;7.77;3.40;;;3.40;95.10;;;;;;4825332;29;20471;-75
2020/12/08 01:32:39;;;;;;;5.40;2.50;;;3.40;95.10;;;;;;4825446;29;20106;-75
2020/12/08 01:35:06;;;;;;;8.87;4.07;;;3.30;95.00;;;;;;4821738;29;20068;-75
2020/12/08 01:37:34;;;;;;;8.17;3.33;;;3.30;95.00;;;;;;4835914;29;20038;-75
2020/12/08 01:40:04;;;;;;;7.70;3.50;;;3.30;95.00;;;;;;4837531;29;20113;-75
2020/12/08 01:42:32;;;;;;;7.10;3.40;;;3.30;95.00;;;;;;4825360;29;20375;-75
2020/12/08 01:44:59;;;;;;;6.57;3.40;;;3.20;95.00;;;;;;4826522;29;20069;-75
2020/12/08 01:47:27;;;;;;;6.20;3.07;;;3.10;94.90;;;;;;4841568;29;20559;-75
2020/12/08 01:49:56;;;;;;;6.33;3.00;;;3.10;95.00;;;;;;4832466;29;20087;-75
2020/12/08 01:52:23;;;;;;;6.20;3.20;;;3.10;95.00;;;;;;4831413;29;20057;-74
2020/12/08 01:54:54;;;;;;;6.97;3.13;;;3.00;95.00;;;;;;4825326;29;20053;-75
2020/12/08 01:57:25;;;;;;;5.22;2.72;;;3.00;95.00;;;;;;4826926;29;20056;-75
2020/12/08 01:59:59;;;;;;;6.23;2.60;;;3.00;95.00;;;;;;4832431;29;20406;-75
2020/12/08 02:02:28;;;;;;;8.00;3.70;;;2.90;95.00;;;;;;4810319;29;20053;-75
2020/12/08 02:04:57;;;;;;;5.43;2.33;;;2.90;95.00;;;;;;4825305;29;20052;-75
2020/12/08 02:07:24;;;;;;;5.57;2.53;;;2.90;95.00;;;;;;4840524;29;20053;-75
2020/12/08 02:09:51;;;;;;;5.13;2.67;;;2.90;95.00;;;;;;4821672;29;20042;-75
2020/12/08 02:12:24;;;;;;;5.32;2.45;;;2.90;95.00;;;;;;4843050;29;20507;-75
2020/12/08 02:14:50;;;;;;;5.60;2.40;;;2.80;95.00;;;;;;4845396;29;20141;-75
2020/12/08 02:17:18;;;;;;;5.20;2.50;;;2.80;95.00;;;;;;4828841;29;20537;-75
2020/12/08 02:19:45;;;;;;;5.20;2.60;;;2.80;95.10;;;;;;4828775;29;20138;-75
2020/12/08 02:22:14;;;;;;;5.73;2.90;;;2.90;95.10;;;;;;4828567;29;20042;-75
2020/12/08 02:24:41;;;;;;;5.93;2.57;;;2.80;95.10;;;;;;4828529;29;20045;-75
2020/12/08 02:27:08;;;;;;;5.17;2.57;;;2.80;95.10;;;;;;4813790;29;20106;-75
2020/12/08 02:29:35;;;;;;;5.27;2.63;;;2.90;95.30;;;;;;4841007;29;20041;-75
2020/12/08 02:32:02;;;;;;;5.27;2.87;;;2.80;95.00;;;;;;4828567;29;20114;-75
2020/12/08 02:34:29;;;;;;;5.90;2.70;;;2.80;95.00;;;;;;4816419;29;20050;-75
2020/12/08 02:36:57;;;;;;;5.63;2.83;;;2.80;95.00;;;;;;4843681;29;20053;-75
2020/12/08 02:39:27;;;;;;;6.13;2.60;;;2.80;95.10;;;;;;4827933;29;20516;-75
2020/12/08 02:41:56;;;;;;;5.40;2.57;;;2.80;95.10;;;;;;4829693;29;20057;-75
2020/12/08 02:44:23;;;;;;;6.43;3.03;;;2.80;95.10;;;;;;4822967;29;20057;-74
2020/12/08 02:46:50;;;;;;;5.60;2.80;;;2.80;95.10;;;;;;4828586;29;20049;-75
2020/12/08 02:49:20;;;;;;;4.70;2.43;;;2.80;95.10;;;;;;4843222;29;20045;-75
2020/12/08 02:51:47;;;;;;;6.97;2.93;;;2.70;95.00;;;;;;4828344;29;20062;-74
2020/12/08 02:54:14;;;;;;;5.23;2.63;;;2.70;95.10;;;;;;4828078;29;20058;-75
2020/12/08 02:56:42;;;;;;;5.77;2.80;;;2.70;95.00;;;;;;4843227;29;20509;-75
2020/12/08 02:59:20;;;;;;;5.77;2.70;;;2.70;95.00;;;;;;4827884;29;20041;-75
2020/12/08 03:01:47;;;;;;;5.53;2.43;;;2.70;95.00;;;;;;4843366;29;20052;-75
2020/12/08 03:04:14;;;;;;;3.63;2.20;;;2.70;95.00;;;;;;4843222;29;20050;-81
2020/12/08 03:06:41;;;;;;;5.13;2.60;;;2.60;95.00;;;;;;4813608;29;20074;-81
2020/12/08 03:09:09;;;;;;;4.93;2.13;;;2.60;95.00;;;;;;4813654;29;20048;-80
2020/12/08 03:11:36;;;;;;;6.50;2.63;;;2.60;95.00;;;;;;4829692;29;20058;-80
2020/12/08 03:14:13;;;;;;;6.13;3.27;;;2.50;95.00;;;;;;4828805;29;20524;-81
2020/12/08 03:16:41;;;;;;;5.80;2.63;;;2.50;95.00;;;;;;4813249;29;20042;-79
2020/12/08 03:19:07;;;;;;;4.93;2.10;;;2.50;95.00;;;;;;4812712;29;20060;-80
2020/12/08 03:21:35;;;;;;;4.87;1.97;;;2.50;95.00;;;;;;4827149;29;20050;-81
2020/12/08 03:24:11;;;;;;;6.13;2.30;;;2.50;95.10;;;;;;4827254;29;20038;-80
2020/12/08 03:26:38;;;;;;;5.13;2.27;;;2.50;95.00;;;;;;4797352;29;20123;-81
2020/12/08 03:29:05;;;;;;;6.07;2.47;;;2.50;95.10;;;;;;4826932;29;20053;-81
2020/12/08 03:31:31;;;;;;;7.50;2.50;;;2.50;95.10;;;;;;4842050;29;20133;-81
2020/12/08 03:34:02;;;;;;;4.67;2.20;;;2.50;95.10;;;;;;4826455;29;20167;-80
2020/12/08 03:36:30;;;;;;;4.63;1.97;;;2.50;95.10;;;;;;4809753;29;20054;-81
2020/12/08 03:38:58;;;;;;;4.70;2.07;;;2.50;95.00;;;;;;4811958;29;20053;-82
2020/12/08 03:41:29;;;;;;;5.27;2.40;;;2.50;95.10;;;;;;4826812;29;20407;-80
2020/12/08 03:44:02;;;;;;;4.82;1.80;;;2.40;95.00;;;;;;4798194;29;20053;-80
2020/12/08 03:46:29;;;;;;;6.23;2.70;;;2.40;95.00;;;;;;4829733;29;20461;-80
2020/12/08 03:48:57;;;;;;;6.30;3.33;;;2.40;95.10;;;;;;4824167;29;20399;-81
2020/12/08 03:51:23;;;;;;;6.30;2.90;;;2.40;95.10;;;;;;4835663;29;20070;-80
2020/12/08 03:53:53;;;;;;;4.93;2.50;;;2.40;95.00;;;;;;4793765;29;20606;-80
2020/12/08 03:56:24;;;;;;;5.00;2.03;;;2.40;95.10;;;;;;4834488;29;20050;-80
2020/12/08 03:58:58;;;;;;;6.30;2.87;;;2.40;95.10;;;;;;4827463;29;20057;-80
2020/12/08 04:01:25;;;;;;;5.80;2.17;;;2.40;95.10;;;;;;4805312;29;20550;-80
2020/12/08 04:03:53;;;;;;;6.10;2.27;;;2.30;95.00;;;;;;4842340;29;20090;-80
2020/12/08 04:06:19;;;;;;;4.83;2.33;;;2.30;95.00;;;;;;4808837;29;20585;-80
2020/12/08 04:08:47;;;;;;;4.90;2.03;;;2.30;95.00;;;;;;4823184;29;20045;-80
2020/12/08 04:11:18;;;;;;;6.90;2.83;;;2.30;95.00;;;;;;4812336;29;20089;-80
2020/12/08 04:13:49;;;;;;;7.00;2.87;;;2.30;95.10;;;;;;4826783;29;20058;-79
2020/12/08 04:16:16;;;;;;;6.07;2.50;;;2.30;95.10;;;;;;4824241;29;20054;-80
2020/12/08 04:18:47;;;;;;;5.03;2.13;;;2.30;95.10;;;;;;4798347;29;20153;-80
2020/12/08 04:21:25;;;;;;;6.47;2.77;;;2.30;95.10;;;;;;4811897;29;20050;-80
2020/12/08 04:24:01;;;;;;;6.70;3.07;;;2.30;95.00;;;;;;4812752;29;20114;-80
2020/12/08 04:26:32;;;;;;;4.63;2.20;;;2.20;95.00;;;;;;4826830;29;20046;-80
2020/12/08 04:29:03;;;;;;;6.82;2.97;;;2.20;95.00;;;;;;4812591;29;20060;-80
2020/12/08 04:31:32;;;;;;;5.00;2.70;;;2.20;95.00;;;;;;4812138;29;20046;-79
2020/12/08 04:33:59;;;;;;;5.40;2.40;;;2.20;95.30;;;;;;4833876;29;20378;-80
2020/12/08 04:36:26;;;;;;;7.50;3.47;;;2.20;95.10;;;;;;4795371;29;20466;-80
2020/12/08 04:38:53;;;;;;;6.67;3.17;;;2.10;95.00;;;;;;4823759;29;20559;-79
2020/12/08 04:41:21;;;;;;;6.07;2.60;;;2.10;95.00;;;;;;4811523;29;20069;-80
2020/12/08 04:43:48;;;;;;;6.13;2.63;;;2.10;95.00;;;;;;4826848;29;20395;-80
2020/12/08 04:46:21;;;;;;;6.57;3.17;;;2.20;95.10;;;;;;4831769;29;20061;-80
2020/12/08 04:48:49;;;;;;;6.57;2.75;;;2.10;95.10;;;;;;4830914;29;20047;-79
2020/12/08 04:51:16;;;;;;;7.03;3.20;;;2.10;95.10;;;;;;4826859;29;20087;-80
2020/12/08 04:53:45;;;;;;;6.13;2.60;;;2.10;95.30;;;;;;4836346;29;20052;-80
2020/12/08 04:56:12;;;;;;;5.13;2.40;;;2.10;95.10;;;;;;4836621;29;20137;-80
2020/12/08 04:58:42;;;;;;;5.60;2.80;;;2.20;95.10;;;;;;4826150;29;20122;-80
2020/12/08 05:01:10;;;;;;;7.03;3.33;;;2.20;95.20;;;;;;4842602;29;20049;-79
2020/12/08 05:03:40;;;;;;;6.27;2.93;;;2.20;95.20;;;;;;4833430;29;20049;-79
2020/12/08 05:06:14;;;;;;;6.37;2.80;;;2.30;95.30;;;;;;4820396;29;20049;-79
2020/12/08 05:08:40;;;;;;;5.33;2.40;;;2.30;95.30;;;;;;4841448;29;20037;-80
2020/12/08 05:11:08;;;;;;;5.93;3.07;;;2.40;95.30;;;;;;4813575;29;20066;-79
2020/12/08 05:13:34;;;;;;;7.90;3.63;;;2.40;95.20;;;;;;4822624;29;20471;-79
2020/12/08 05:16:05;;;;;;;9.07;4.53;;;2.50;95.30;;;;;;4830295;29;20049;-79
2020/12/08 05:18:33;;;;;;;8.60;4.40;;;2.50;95.20;;;;;;4841200;29;20062;-79
2020/12/08 05:21:11;;;;;;;8.07;3.57;;;2.50;95.10;;;;;;4819412;29;20416;-79
2020/12/08 05:23:44;;;;;;;6.67;3.70;;;2.50;95.10;;;;;;4834072;29;20045;-79
2020/12/08 05:26:10;;;;;;;;;;;2.40;95.30;;;;;;4810608;29;20046;-79
2020/12/08 05:28:37;;;;;;;7.67;3.10;;;2.40;95.10;;;;;;4839899;29;20413;-79
2020/12/08 05:31:05;;;;;;;8.13;3.40;;;2.30;95.10;;;;;;4841414;29;20057;-79
2020/12/08 05:33:31;;;;;;;6.57;3.60;;;2.30;95.10;;;;;;4813716;29;20389;-79
2020/12/08 05:36:00;;;;;;;6.37;3.27;;;2.30;95.40;;;;;;4837741;29;20117;-79
2020/12/08 05:38:35;;;;;;;8.23;4.10;;;2.30;95.20;;;;;;4841016;29;20419;-80
2020/12/08 05:41:07;;;;;;;6.43;3.10;;;2.30;95.10;;;;;;4839514;29;20042;-79
2020/12/08 05:43:41;;;;;;;7.87;3.70;;;2.30;95.20;;;;;;4813041;29;20466;-79
2020/12/08 05:46:10;;;;;;;7.70;4.37;;;2.40;95.20;;;;;;4825723;29;20050;-79
2020/12/08 05:48:37;;;;;;;6.13;3.10;;;2.30;95.40;;;;;;4825874;29;20091;-80
2020/12/08 05:51:07;;;;;;;7.87;3.70;;;2.30;95.10;;;;;;4826447;29;21345;-80
2020/12/08 05:53:34;;;;;;;7.07;3.27;;;2.30;95.10;;;;;;4813397;29;20070;-80
2020/12/08 05:56:08;;;;;;;7.90;4.00;;;2.30;95.10;;;;;;4834329;29;20038;-80
2020/12/08 05:58:36;;;;;;;6.77;3.33;;;2.30;95.10;;;;;;4794792;29;20065;-74
2020/12/08 06:01:11;;;;;;;7.10;3.80;;;2.30;95.20;;;;;;4824856;29;20129;-74
2020/12/08 06:03:39;;;;;;;7.43;3.93;;;2.40;95.20;;;;;;4835904;29;20038;-74
2020/12/08 06:06:10;;;;;;;6.90;3.90;;;2.40;95.20;;;;;;4832503;29;20455;-74
2020/12/08 06:08:46;;;;;;;6.83;3.50;;;2.40;95.20;;;;;;4840661;29;20049;-75
2020/12/08 06:11:14;;;;;;;8.60;3.97;;;2.50;95.20;;;;;;4814146;29;20129;-75
2020/12/08 06:13:48;;;;;;;6.50;3.60;;;2.50;95.20;;;;;;4859839;29;20382;-74
2020/12/08 06:16:17;;;;;;;9.20;4.03;;;2.60;95.20;;;;;;4859391;29;20056;-75
2020/12/08 06:18:44;;;;;;;9.30;4.73;;;2.60;95.20;;;;;;4859521;29;20521;-75
2020/12/08 06:21:28;;;;;;;8.87;4.17;;;2.60;95.10;;;;;;4859591;29;20127;-74
2020/12/08 06:23:59;;;;;;;8.37;4.53;;;2.70;95.10;;;;;;4859288;29;20041;-74
2020/12/08 06:26:26;;;;;;;7.80;4.17;;;2.70;95.10;;;;;;4842644;29;20057;-74
2020/12/08 06:28:54;;;;;;;8.27;4.73;;;2.80;95.10;;;;;;4859353;29;20042;-74
2020/12/08 06:31:21;;;;;;;6.57;3.83;;;2.80;95.10;;;;;;4859448;29;20126;-74
2020/12/08 06:33:50;;;;;;;7.83;3.77;;;2.80;95.10;;;;;;4859460;29;20053;-74
2020/12/08 06:36:18;;;;;;;7.97;4.10;;;2.80;95.10;;;;;;4859721;29;20053;-74
2020/12/08 06:39:14;;;;;;;7.00;3.87;;;2.90;95.10;;;;;;4859895;29;20497;-79
2020/12/08 06:41:42;;;;;;;6.73;3.70;;;2.90;95.00;;;;;;4815322;29;20045;-79
2020/12/08 06:44:14;;;;;;;7.90;4.07;;;2.90;95.10;;;;;;4828518;29;20069;-79
2020/12/08 06:46:52;;;;;;;8.87;4.97;;;2.90;95.10;;;;;;4842322;29;20073;-80
2020/12/08 06:49:23;;;;;;;7.70;3.90;;;2.90;95.00;;;;;;4860160;29;20041;-79
2020/12/08 06:51:56;;;;;;;10.27;5.27;;;2.90;95.00;;;;;;4828446;29;20465;-79
2020/12/08 06:54:25;;;;;;;9.23;4.90;;;3.00;95.10;;;;;;4851085;29;20149;-79
2020/12/08 06:57:02;;;;;;;10.33;5.20;;;3.00;95.00;;;;;;4862062;29;20132;-78
2020/12/08 06:59:29;;;;;;;8.47;4.50;;;3.00;95.00;;;;;;4846553;29;20057;-79
2020/12/08 07:01:57;;;;;;;10.83;4.90;;;3.00;95.00;;;;;;4824377;29;20064;-79
2020/12/08 07:04:27;;;;;;;10.60;5.63;;;3.00;95.00;;;;;;4837824;29;20061;-80
2020/12/08 07:06:54;;;;;;;10.13;5.57;;;3.10;95.00;;;;;;4848916;29;20042;-79
2020/12/08 07:09:21;;;;;;;8.50;4.60;;;3.10;95.00;;;;;;4862929;29;20509;-79
2020/12/08 07:11:59;;;;;;;10.17;5.60;;;3.10;95.00;;;;;;4811951;29;20090;-79
2020/12/08 07:14:29;;;;;;;12.17;6.10;;;3.10;95.20;;;;;;4828029;29;20046;-79
2020/12/08 07:16:56;;;;;;;11.07;6.33;;;3.10;95.00;;;;;;4829535;29;20050;-79
2020/12/08 07:19:23;;;;;;;9.60;4.87;;;3.10;94.90;;;;;;4797976;29;20048;-79
2020/12/08 07:21:58;;;;;;;9.90;4.93;;;3.10;95.20;;;;;;4818813;29;20460;-79
2020/12/08 07:24:25;;;;;;;9.57;4.70;;;3.20;94.90;;;;;;4805626;29;20045;-79
2020/12/08 07:26:59;;;;;;;12.33;5.87;;;3.20;94.90;;;;;;4813194;29;20136;-79
2020/12/08 07:29:26;;;;;;;9.20;5.27;;;3.20;94.90;;;;;;4813054;29;20045;-80
2020/12/08 07:31:53;;;;;;;8.73;4.63;;;3.20;94.90;;;;;;4827825;29;20471;-79
2020/12/08 07:34:20;;;;;;;9.60;4.77;;;3.20;94.90;;;;;;4827834;29;20046;-79
2020/12/08 07:36:46;;;;;;;8.93;4.93;;;3.30;94.90;;;;;;4803144;29;20088;-79
2020/12/08 07:39:18;;;;;;;8.67;4.37;;;3.30;94.90;;;;;;4824975;29;20464;-78
2020/12/08 07:41:45;;;;;;;9.63;4.83;;;3.30;94.90;;;;;;4809061;29;20046;-79
2020/12/08 07:44:13;;;;;;;10.40;5.57;;;3.30;94.90;;;;;;4812583;29;20065;-79
2020/12/08 07:46:51;;;;;;;10.17;4.90;;;3.30;94.90;;;;;;4828203;29;20050;-79
2020/12/08 07:49:19;;;;;;;9.40;4.97;;;3.40;94.90;;;;;;4827700;29;20046;-79
2020/12/08 07:51:49;;;;;;;9.10;5.03;;;3.40;94.90;;;;;;4800747;29;20106;-79
2020/12/08 07:54:19;;;;;;;8.80;4.83;;;3.40;94.90;;;;;;4843952;29;20057;-79
2020/12/08 07:56:45;;;;;;;8.93;4.57;;;3.40;94.90;;;;;;4827527;29;20460;-79
2020/12/08 07:59:12;;;;;;;10.47;5.50;;;3.40;94.90;;;;;;4843849;29;20442;-79
2020/12/08 08:01:43;;;;;;;9.00;4.97;;;3.40;94.80;;;;;;4812195;29;20045;-79
2020/12/08 08:04:11;;;;;;;7.10;3.90;;;3.40;94.80;;;;;;4819784;29;20053;-80
2020/12/08 08:06:38;;;;;;;9.97;4.70;;;3.50;94.90;;;;;;4836267;29;20178;-80
2020/12/08 08:09:06;;;;;;;9.10;4.93;;;3.50;94.80;;;;;;4830416;29;20057;-80
2020/12/08 08:11:34;;;;;;;8.80;4.63;;;3.50;94.80;;;;;;4828780;29;20066;-80
2020/12/08 08:14:01;;;;;;;10.87;5.87;;;3.50;94.80;;;;;;4824464;29;20046;-79
2020/12/08 08:16:28;;;;;;;12.13;5.80;;;3.50;94.80;;;;;;4804501;29;20041;-80
2020/12/08 08:18:59;;;;;;;10.63;5.60;;;3.50;94.80;;;;;;4827490;29;20126;-79
2020/12/08 08:21:25;;;;;;;10.90;5.83;;;3.50;94.80;;;;;;4796925;29;20172;-79
2020/12/08 08:23:52;;;;;;;10.80;5.80;;;3.50;94.80;;;;;;4842927;29;20514;-79
2020/12/08 08:26:19;;;;;;;12.67;6.43;;;3.50;94.80;;;;;;4827055;29;20046;-85
2020/12/08 08:28:47;;;;;;;10.13;5.83;;;3.60;94.80;;;;;;4825250;29;20510;-77
2020/12/08 08:31:14;;;;;;;12.83;6.87;;;3.60;94.80;;;;;;4800142;29;20418;-78
2020/12/08 08:33:40;;;;;;;11.27;5.27;;;3.60;94.80;;;;;;4823334;29;20039;-78
2020/12/08 08:36:06;;;;;;;9.27;5.10;;;3.60;94.80;;;;;;4837685;29;20050;-77
2020/12/08 08:38:33;;;;;;;9.70;5.63;;;3.60;94.80;;;;;;4812015;29;20050;-77
2020/12/08 08:41:00;;;;;;;8.40;4.57;;;3.60;94.80;;;;;;4838753;29;20061;-79
2020/12/08 08:43:27;;;;;;;11.27;5.50;;;3.60;94.80;;;;;;4841123;29;20038;-79
2020/12/08 08:45:55;;;;;;;13.20;7.40;;;3.70;94.80;;;;;;4811493;29;20219;-78
2020/12/08 08:48:25;;;;;;;11.53;6.07;;;3.70;94.80;;;;;;4812207;29;20348;-78
2020/12/08 08:50:52;;;;;;;11.53;6.73;;;3.70;94.70;;;;;;4842540;29;20046;-77
2020/12/08 08:53:18;;;;;;;12.50;6.20;;;3.70;94.70;;;;;;4811269;29;20062;-77
2020/12/08 08:55:45;;;;;;;11.50;6.50;;;3.70;94.70;;;;;;4811439;29;20049;-78
2020/12/08 08:58:15;;;;;;;13.47;6.87;;;3.70;94.70;;;;;;4826865;29;20105;-78
2020/12/08 09:00:42;;;;;;;14.47;6.50;;;3.70;94.70;;;;;;4841327;29;20057;-78
2020/12/08 09:03:09;;;;;;;13.00;6.30;;;3.80;94.70;;;;;;4826058;29;20110;-78
2020/12/08 09:05:37;;;;;;;10.73;6.30;;;3.80;94.70;;;;;;4813970;29;20069;-77
2020/12/08 09:08:04;;;;;;;11.87;6.80;;;3.80;94.70;;;;;;4826356;29;20106;-81
2020/12/08 09:10:31;;;;;;;11.83;6.30;;;3.80;94.70;;;;;;4826066;29;20107;-80
2020/12/08 09:12:57;;;;;;;13.47;6.83;;;3.80;94.70;;;;;;4828202;29;20114;-79
2020/12/08 09:15:24;;;;;;;11.97;6.40;;;3.90;94.70;;;;;;4841544;29;20052;-78
2020/12/08 09:17:51;;;;;;;11.43;5.83;;;3.90;94.60;;;;;;4825716;29;20045;-79
2020/12/08 09:20:18;;;;;;;10.77;6.17;;;3.90;94.60;;;;;;4810867;29;20058;-78
2020/12/08 09:22:50;;;;;;;10.57;5.60;;;3.90;94.60;;;;;;4829387;29;20129;-78
2020/12/08 09:25:22;;;;;;;9.57;5.53;;;3.90;94.60;;;;;;4827364;29;20124;-78
2020/12/08 09:27:48;;;;;;;11.90;6.53;;;4.00;94.60;;;;;;4797478;29;20045;-76
2020/12/08 09:30:15;;;;;;;13.00;6.90;;;4.00;94.60;;;;;;4834969;29;20129;-77
2020/12/08 09:32:41;;;;;;;9.77;5.80;;;4.00;94.60;;;;;;4825495;29;20108;-78
2020/12/08 09:35:08;;;;;;;10.37;6.23;;;4.00;94.50;;;;;;4834032;29;20487;-78
2020/12/08 09:37:35;;;;;;;11.80;6.10;;;4.10;94.60;;;;;;4826437;29;20046;-78
2020/12/08 09:40:01;;;;;;;10.97;6.23;;;4.10;94.60;;;;;;4822071;29;20073;-78
2020/12/08 09:42:28;;;;;;;10.07;5.63;;;4.20;94.60;;;;;;4825862;29;20053;-77
2020/12/08 09:44:54;;;;;;;11.87;7.17;;;4.20;94.60;;;;;;4828004;29;20072;-77
2020/12/08 09:47:21;;;;;;;14.30;6.80;;;4.20;94.50;;;;;;4810770;29;20053;-77
2020/12/08 09:49:47;;;;;;;11.37;6.13;;;4.20;94.50;;;;;;4829931;29;20054;-77
2020/12/08 09:52:14;;;;;;;10.77;6.60;;;4.20;94.50;;;;;;4803437;29;20055;-77
2020/12/08 09:54:41;;;;;;;10.03;5.53;;;4.30;94.50;;;;;;4841682;29;20110;-78
2020/12/08 09:57:07;;;;;;;9.67;5.23;;;4.30;94.50;;;;;;4838213;29;20103;-78
2020/12/08 09:59:35;;;;;;;9.43;5.67;;;4.40;94.50;;;;;;4810727;29;20049;-78
2020/12/08 10:02:03;;;;;;;9.97;5.67;;;4.40;94.50;;;;;;4825495;29;20052;-78
2020/12/08 10:04:30;;;;;;;9.97;5.00;;;4.50;94.50;;;;;;4841980;29;20046;-81
2020/12/08 10:06:57;;;;;;;11.07;6.40;;;4.50;94.40;;;;;;4817279;29;20045;-79
2020/12/08 10:09:24;;;;;;;10.33;5.83;;;4.60;94.40;;;;;;4841699;29;20038;-79
2020/12/08 10:11:51;;;;;;;9.90;5.67;;;4.60;94.40;;;;;;4841441;29;20062;-80
2020/12/08 10:14:18;;;;;;;11.73;5.43;;;4.70;94.40;;;;;;4818545;29;20487;-75
2020/12/08 10:16:46;;;;;;;10.23;4.83;;;4.70;94.40;;;;;;4819759;29;20042;-76
2020/12/08 10:19:13;;;;;;;9.53;5.00;;;4.70;94.40;;;;;;4790238;29;20053;-81
2020/12/08 10:21:40;;;;;;;10.60;5.83;;;4.70;94.30;;;;;;4835703;29;20099;-75
2020/12/08 10:24:07;;;;;;;10.27;6.00;;;4.70;94.30;;;;;;4841224;29;20077;-75
2020/12/08 10:26:34;;;;;;;14.03;7.00;;;4.80;94.30;;;;;;4800932;29;20092;-79
2020/12/08 10:29:01;;;;;;;12.67;7.03;;;4.80;94.30;;;;;;4826134;29;20439;-78
2020/12/08 10:31:27;;;;;;;11.33;6.63;;;4.80;94.30;;;;;;4838849;29;20434;-75
2020/12/08 10:33:56;;;;;;;13.33;7.87;;;4.80;94.30;;;;;;4823527;29;20050;-77
2020/12/08 10:36:24;;;;;;;12.47;7.63;;;4.80;94.30;;;;;;4814405;29;20038;-77
2020/12/08 10:38:50;;;;;;;13.10;7.53;;;4.80;94.30;;;;;;4813428;29;20468;-75
2020/12/08 10:41:23;;;;;;;11.73;6.50;;;4.90;94.30;;;;;;4843452;29;20076;-77
2020/12/08 10:43:49;;;;;;;14.53;7.60;;;4.90;94.20;;;;;;4828412;29;20058;-75
2020/12/08 10:46:16;;;;;;;12.23;7.07;;;4.90;94.20;;;;;;4812707;29;20508;-75
2020/12/08 10:48:43;;;;;;;15.83;8.30;;;4.90;94.20;;;;;;4813278;29;20048;-76
2020/12/08 10:51:09;;;;;;;12.80;7.23;;;5.00;94.10;;;;;;4844601;29;20046;-75
2020/12/08 10:53:36;;;;;;;11.53;7.17;;;5.00;94.10;;;;;;4813020;29;20149;-75
2020/12/08 10:56:02;;;;;;;12.47;7.10;;;5.10;94.10;;;;;;4835956;29;20053;-75
2020/12/08 10:58:29;;;;;;;12.80;7.03;;;5.20;94.10;;;;;;4827382;29;20050;-76
2020/12/08 11:00:56;;;;;;;11.13;6.17;;;5.20;94.10;;;;;;4843747;29;20060;-75
2020/12/08 11:03:25;;;;;;;12.53;6.50;;;5.30;94.10;;;;;;4827149;29;20095;-74
2020/12/08 11:05:52;;;;;;;13.63;7.27;;;5.30;94.00;;;;;;4843831;29;20542;-73
2020/12/08 11:08:19;;;;;;;12.17;6.43;;;5.30;94.00;;;;;;4799240;29;20055;-73
2020/12/08 11:10:45;;;;;;;12.80;7.40;;;5.30;94.00;;;;;;4811819;29;20050;-72
2020/12/08 11:13:15;;;;;;;13.33;8.13;;;5.40;94.00;;;;;;4843146;29;20448;-73
2020/12/08 11:15:58;;;;;;;12.18;7.07;;;5.30;94.00;;;;;;4843434;29;20050;-73
2020/12/08 11:18:24;;;;;;;13.50;7.90;;;5.30;94.00;;;;;;4827125;29;20054;-72
2020/12/08 11:20:51;;;;;;;13.37;7.40;;;5.40;94.00;;;;;;4835413;29;20475;-75
2020/12/08 11:23:17;;;;;;;14.03;8.40;;;5.40;94.00;;;;;;4826938;29;20038;-72
2020/12/08 11:25:46;;;;;;;15.37;8.40;;;5.40;93.90;;;;;;4842901;29;20048;-72
2020/12/08 11:28:13;;;;;;;12.80;6.83;;;5.30;93.90;;;;;;4843057;29;20053;-72
2020/12/08 11:30:40;;;;;;;15.50;8.53;;;5.30;93.90;;;;;;4843112;29;20050;-73
2020/12/08 11:33:06;;;;;;;15.03;7.80;;;5.30;93.90;;;;;;4826838;29;20669;-73
2020/12/08 11:35:33;;;;;;;14.00;8.27;;;5.20;93.90;;;;;;4842833;29;20046;-72
2020/12/08 11:37:59;;;;;;;13.73;7.93;;;5.20;93.90;;;;;;4843882;29;20054;-77
2020/12/08 11:40:26;;;;;;;11.63;7.27;;;5.10;93.90;;;;;;4811201;29;20050;-77
2020/12/08 11:42:53;;;;;;;12.50;6.90;;;5.10;94.00;;;;;;4829166;29;20043;-75
2020/12/08 11:45:20;;;;;;;11.87;7.90;;;5.20;94.00;;;;;;4810079;29;20053;-75
2020/12/08 11:47:47;;;;;;;12.27;7.13;;;5.20;94.00;;;;;;4821318;29;20053;-76
2020/12/08 11:50:13;;;;;;;11.07;5.97;;;5.20;94.00;;;;;;4816406;29;20038;-75
2020/12/08 11:52:41;;;;;;;11.60;6.57;;;5.20;94.00;;;;;;4817527;29;20593;-79
2020/12/08 11:55:08;;;;;;;14.33;7.93;;;5.20;94.00;;;;;;4817260;29;20049;-75
2020/12/08 11:57:38;;;;;;;11.63;7.27;;;5.20;93.90;;;;;;4825328;29;20054;-73
2020/12/08 12:00:07;;;;;;;13.87;7.60;;;5.20;93.90;;;;;;4839964;29;20049;-74
2020/12/08 12:02:40;;;;;;;12.07;7.13;;;5.10;93.90;;;;;;4840249;29;20089;-74
2020/12/08 12:05:07;;;;;;;11.30;5.57;;;5.10;94.00;;;;;;4838530;29;20502;-74
2020/12/08 12:07:33;;;;;;;10.63;5.83;;;5.10;94.00;;;;;;4839606;29;20422;-75
2020/12/08 12:10:00;;;;;;;11.27;6.27;;;5.10;94.00;;;;;;4839759;29;20102;-73
2020/12/08 12:12:27;;;;;;;10.43;6.10;;;5.10;94.00;;;;;;4836038;29;20049;-74
2020/12/08 12:14:54;;;;;;;11.37;6.37;;;5.10;94.20;;;;;;4821512;29;20078;-74
2020/12/08 12:17:20;;;;;;;10.53;5.80;;;5.10;94.00;;;;;;4839841;29;20038;-73
2020/12/08 12:19:47;;;;;;;9.43;5.43;;;5.10;94.00;;;;;;4838781;29;20723;-73
2020/12/08 12:22:13;;;;;;;11.77;6.47;;;5.10;94.00;;;;;;4835836;29;20066;-74
2020/12/08 12:24:42;;;;;;;10.70;6.03;;;5.10;94.00;;;;;;4836350;29;20511;-73
2020/12/08 12:27:08;;;;;;;9.30;5.37;;;5.10;94.00;;;;;;4838556;29;20046;-73
2020/12/08 12:29:40;;;;;;;9.77;5.90;;;5.20;94.00;;;;;;4833239;29;20039;-74
2020/12/08 12:32:07;;;;;;;11.77;6.40;;;5.30;94.00;;;;;;4837494;29;20041;-74
2020/12/08 12:34:33;;;;;;;10.53;5.93;;;5.30;94.00;;;;;;4838482;29;20053;-74
2020/12/08 12:37:03;;;;;;;10.53;5.90;;;5.30;94.20;;;;;;4835098;29;20049;-73
2020/12/08 12:39:29;;;;;;;9.50;5.67;;;5.30;93.90;;;;;;4838770;29;20081;-74
2020/12/08 12:41:56;;;;;;;10.37;5.53;;;5.30;93.90;;;;;;4806733;29;20053;-74
2020/12/08 12:44:23;;;;;;;10.77;6.13;;;5.30;93.90;;;;;;4832549;29;20089;-74
2020/12/08 12:46:53;;;;;;;11.67;6.50;;;5.30;93.90;;;;;;4831541;29;20095;-76
2020/12/08 12:49:20;;;;;;;11.07;5.83;;;5.20;93.90;;;;;;4805125;29;20057;-76
2020/12/08 12:51:46;;;;;;;10.20;5.57;;;5.20;93.90;;;;;;4831409;29;20041;-76
2020/12/08 12:54:18;;;;;;;9.43;5.53;;;5.20;93.90;;;;;;4827913;29;20034;-76
2020/12/08 12:56:44;;;;;;;9.13;4.97;;;5.20;94.00;;;;;;4821501;29;20587;-76
2020/12/08 12:59:12;;;;;;;10.57;5.80;;;5.20;94.00;;;;;;4822370;29;20106;-75